Time;durP1;ratioP1;P1;durP2;ratioP2;P2;SDS_P1;SDS_P2;PMS_P1;PMS_P2;Temp;Humidity;BMP_temperature;BMP_pressure;BME280_temperature;BME280_humidity;BME280_pressure;Samples;Min_cycle;Max_cycle;Signal;HPM_P1;HPM_P2
2023/04/25 00:02:00;;;;;;;6.97;3.43;;;10.10;99.90;;;;;;5037906;28;20219;-65
2023/04/25 00:04:27;;;;;;;3.63;2.90;;;10.10;99.90;;;;;;5035729;28;20182;-65
2023/04/25 00:07:01;;;;;;;4.20;2.83;;;10.00;99.90;;;;;;5035714;28;20197;-66
2023/04/25 00:09:27;;;;;;;6.93;3.50;;;10.00;99.90;;;;;;5036035;28;20180;-66
2023/04/25 00:11:53;;;;;;;4.43;2.70;;;10.00;99.90;;;;;;5035709;28;20182;-66
2023/04/25 00:14:19;;;;;;;4.17;2.40;;;10.00;99.90;;;;;;5032108;28;20198;-66
2023/04/25 00:16:46;;;;;;;4.23;2.70;;;9.90;99.90;;;;;;5015913;28;20178;-67
2023/04/25 00:19:14;;;;;;;3.90;2.43;;;10.00;99.90;;;;;;5027575;28;20205;-66
2023/04/25 00:21:40;;;;;;;5.90;2.67;;;9.90;99.90;;;;;;5035305;28;20201;-66
2023/04/25 00:24:11;;;;;;;5.35;2.55;;;9.80;99.90;;;;;;5033529;28;20300;-65
2023/04/25 00:26:39;;;;;;;4.03;2.70;;;9.80;99.90;;;;;;5032667;28;20202;-66
2023/04/25 00:29:07;;;;;;;5.10;2.70;;;9.80;99.90;;;;;;5033584;28;20271;-60
2023/04/25 00:31:35;;;;;;;2.87;2.20;;;9.80;99.90;;;;;;5027785;28;20185;-65
2023/04/25 00:34:03;;;;;;;4.73;2.77;;;9.80;99.90;;;;;;5031773;28;20182;-66
2023/04/25 00:36:29;;;;;;;4.60;2.57;;;9.70;99.90;;;;;;5029033;28;20208;-63
2023/04/25 00:38:55;;;;;;;4.07;2.30;;;9.70;99.90;;;;;;5030930;28;20209;-65
2023/04/25 00:41:21;;;;;;;4.53;2.40;;;9.70;99.90;;;;;;5032752;28;20217;-65
2023/04/25 00:43:50;;;;;;;4.40;2.60;;;9.60;99.90;;;;;;5030179;28;20304;-66
2023/04/25 00:46:18;;;;;;;4.40;2.23;;;9.60;99.90;;;;;;5030946;28;20281;-67
2023/04/25 00:48:44;;;;;;;5.43;2.40;;;9.60;99.90;;;;;;5027991;28;20476;-66
2023/04/25 00:51:13;;;;;;;4.83;2.57;;;9.50;99.90;;;;;;5028143;28;20377;-65
2023/04/25 00:53:39;;;;;;;3.27;2.40;;;9.50;99.90;;;;;;5030395;28;20174;-67
2023/04/25 00:56:05;;;;;;;4.30;2.70;;;9.50;99.90;;;;;;5031695;28;20186;-64
2023/04/25 00:58:34;;;;;;;4.90;2.60;;;9.50;99.90;;;;;;5031693;28;20204;-65
2023/04/25 01:01:00;;;;;;;4.63;2.80;;;9.40;99.90;;;;;;5026277;28;20198;-66
2023/04/25 01:03:28;;;;;;;4.20;2.37;;;9.40;99.90;;;;;;5032495;28;20221;-64
2023/04/25 01:05:56;;;;;;;4.43;2.57;;;9.40;99.90;;;;;;5029950;28;20292;-69
2023/04/25 01:08:27;;;;;;;4.17;2.60;;;9.30;99.90;;;;;;5028787;28;20233;-67
2023/04/25 01:10:54;;;;;;;4.17;2.63;;;9.30;99.90;;;;;;5032210;28;20277;-64
2023/04/25 01:13:20;;;;;;;5.43;2.63;;;9.30;99.90;;;;;;5031712;28;20182;-67
2023/04/25 01:15:46;;;;;;;5.50;2.53;;;9.10;99.90;;;;;;5029057;28;20178;-66
2023/04/25 01:18:12;;;;;;;4.50;2.63;;;9.20;99.90;;;;;;5023648;28;20178;-66
2023/04/25 01:20:47;;;;;;;3.90;2.43;;;9.20;99.90;;;;;;5030844;28;20285;-66
2023/04/25 01:23:21;;;;;;;3.20;2.23;;;9.10;99.90;;;;;;5030822;28;20212;-67
2023/04/25 01:25:48;;;;;;;4.33;2.43;;;9.10;99.90;;;;;;5034809;28;20230;-67
2023/04/25 01:28:16;;;;;;;3.80;2.53;;;9.10;99.90;;;;;;5032962;28;20192;-66
2023/04/25 01:30:42;;;;;;;3.70;2.40;;;9.00;99.90;;;;;;5027520;28;20209;-66
2023/04/25 01:33:13;;;;;;;4.47;2.70;;;9.00;99.90;;;;;;5024874;28;20201;-67
2023/04/25 01:35:40;;;;;;;4.37;2.70;;;9.00;99.90;;;;;;5027855;28;20181;-65
2023/04/25 01:38:08;;;;;;;3.40;2.50;;;9.00;99.90;;;;;;5028525;28;20182;-66
2023/04/25 01:40:35;;;;;;;3.70;2.40;;;8.90;99.90;;;;;;5034559;28;20206;-66
2023/04/25 01:43:01;;;;;;;5.07;2.70;;;8.90;99.90;;;;;;5033923;28;20212;-67
2023/04/25 01:45:27;;;;;;;3.73;2.50;;;8.80;99.90;;;;;;5034597;28;20166;-66
2023/04/25 01:47:52;;;;;;;5.40;2.80;;;8.80;99.90;;;;;;5033688;28;20251;-67
2023/04/25 01:50:19;;;;;;;5.07;3.00;;;8.80;99.90;;;;;;5034161;28;20198;-67
2023/04/25 01:52:49;;;;;;;4.60;2.70;;;8.80;99.90;;;;;;5034349;28;20340;-66
2023/04/25 01:55:15;;;;;;;5.83;3.20;;;8.70;99.90;;;;;;5034644;28;20202;-67
2023/04/25 01:57:45;;;;;;;4.67;2.80;;;8.60;99.90;;;;;;5035218;28;20247;-66
2023/04/25 02:00:14;;;;;;;5.50;3.10;;;8.60;99.90;;;;;;5037092;28;20504;-65
2023/04/25 02:02:42;;;;;;;3.73;2.20;;;8.60;99.90;;;;;;5034589;28;20174;-67
2023/04/25 02:05:10;;;;;;;4.97;2.70;;;8.50;99.90;;;;;;5034190;28;20265;-66
2023/04/25 02:07:38;;;;;;;4.60;2.83;;;8.50;99.90;;;;;;5034523;28;20204;-67
2023/04/25 02:10:04;;;;;;;4.40;2.70;;;8.50;99.90;;;;;;5034297;28;20193;-67
2023/04/25 02:12:34;;;;;;;8.87;2.80;;;8.40;99.90;;;;;;5033984;28;20166;-66
2023/04/25 02:14:59;;;;;;;6.13;2.80;;;8.40;99.90;;;;;;5026009;28;20166;-66
2023/04/25 02:17:27;;;;;;;4.83;2.67;;;8.40;99.90;;;;;;5030422;28;20189;-66
2023/04/25 02:19:57;;;;;;;5.07;2.83;;;8.40;99.90;;;;;;5033475;28;20208;-66
2023/04/25 02:22:26;;;;;;;4.20;2.87;;;8.30;99.90;;;;;;5039515;28;20166;-66
2023/04/25 02:24:53;;;;;;;3.87;2.40;;;8.30;99.90;;;;;;5034499;28;20194;-67
2023/04/25 02:27:19;;;;;;;4.63;2.57;;;8.30;99.90;;;;;;5031168;28;20198;-67
2023/04/25 02:29:44;;;;;;;5.57;2.77;;;8.30;99.90;;;;;;5030438;28;20183;-65
2023/04/25 02:32:10;;;;;;;3.67;2.40;;;8.30;99.90;;;;;;5028834;28;20182;-67
2023/04/25 02:34:36;;;;;;;4.57;2.60;;;8.20;99.90;;;;;;5030877;28;20198;-67
2023/04/25 02:37:02;;;;;;;4.83;2.80;;;8.20;99.90;;;;;;5031322;28;20186;-62
2023/04/25 02:39:29;;;;;;;5.00;2.80;;;8.20;99.90;;;;;;5030887;28;20216;-66
2023/04/25 02:41:55;;;;;;;7.27;2.80;;;8.20;99.90;;;;;;5033790;28;20242;-67
2023/04/25 02:44:21;;;;;;;3.60;2.50;;;8.20;99.90;;;;;;5036799;28;20217;-67
2023/04/25 02:46:46;;;;;;;6.00;2.80;;;8.20;99.90;;;;;;5034684;28;20269;-67
2023/04/25 02:49:17;;;;;;;4.93;2.90;;;8.20;99.90;;;;;;5042062;28;20198;-65
2023/04/25 02:51:42;;;;;;;5.10;2.60;;;8.10;99.90;;;;;;5035536;28;20224;-67
2023/04/25 02:54:08;;;;;;;4.40;2.70;;;8.10;99.90;;;;;;5033251;28;20205;-66
2023/04/25 02:56:34;;;;;;;8.03;3.20;;;8.20;99.90;;;;;;5021020;28;20186;-66
2023/04/25 02:58:59;;;;;;;6.20;2.53;;;8.10;99.90;;;;;;5044483;28;20422;-66
2023/04/25 03:01:30;;;;;;;5.20;2.77;;;8.10;99.90;;;;;;5040162;28;20556;-67
2023/04/25 03:03:57;;;;;;;5.10;2.70;;;8.10;99.90;;;;;;5029468;28;20229;-62
2023/04/25 03:06:23;;;;;;;4.63;2.87;;;8.10;99.90;;;;;;5032307;28;20186;-66
2023/04/25 03:08:51;;;;;;;4.40;2.70;;;8.10;99.90;;;;;;5032652;28;20175;-65
2023/04/25 03:11:16;;;;;;;6.20;3.17;;;8.10;99.90;;;;;;5028420;28;20194;-67
2023/04/25 03:13:44;;;;;;;4.40;2.57;;;8.10;99.90;;;;;;5032863;28;20288;-67
2023/04/25 03:16:12;;;;;;;6.00;2.80;;;8.00;99.90;;;;;;5035709;28;20182;-67
2023/04/25 03:18:40;;;;;;;6.50;3.23;;;8.10;99.90;;;;;;5033282;28;20175;-64
2023/04/25 03:21:08;;;;;;;5.17;2.60;;;8.10;99.90;;;;;;5030418;28;20254;-66
2023/04/25 03:23:36;;;;;;;4.83;2.93;;;8.10;99.90;;;;;;5033060;28;20173;-67
2023/04/25 03:26:02;;;;;;;5.20;2.60;;;8.10;99.90;;;;;;5031863;28;20178;-64
2023/04/25 03:28:30;;;;;;;5.60;2.70;;;8.10;99.90;;;;;;5029119;28;20186;-66
2023/04/25 03:31:00;;;;;;;6.30;3.00;;;8.10;99.90;;;;;;5030592;28;20224;-66
2023/04/25 03:33:28;;;;;;;9.97;2.87;;;8.10;99.90;;;;;;5035697;28;20272;-67
2023/04/25 03:35:53;;;;;;;5.13;2.60;;;8.00;99.90;;;;;;5032581;28;20185;-67
2023/04/25 03:38:21;;;;;;;5.17;3.07;;;8.10;99.90;;;;;;5034005;28;20198;-67
2023/04/25 03:40:47;;;;;;;7.40;3.00;;;8.10;99.90;;;;;;5036410;28;20198;-66
2023/04/25 03:43:17;;;;;;;7.20;3.00;;;8.00;99.90;;;;;;5036682;28;20256;-68
2023/04/25 03:45:43;;;;;;;6.53;3.00;;;8.00;99.90;;;;;;5036204;28;20198;-68
2023/04/25 03:48:08;;;;;;;10.37;3.73;;;7.90;99.90;;;;;;5030846;28;20209;-67
2023/04/25 03:50:34;;;;;;;9.67;3.23;;;7.90;99.90;;;;;;5036461;28;20212;-67
2023/04/25 03:53:00;;;;;;;5.30;3.30;;;7.90;99.90;;;;;;5036693;28;20210;-66
2023/04/25 03:55:27;;;;;;;5.10;2.97;;;7.90;99.90;;;;;;5032870;28;20174;-68
2023/04/25 03:57:53;;;;;;;7.23;3.43;;;7.90;99.90;;;;;;5044062;28;20193;-66
2023/04/25 04:00:19;;;;;;;6.70;3.40;;;7.90;99.90;;;;;;5039870;28;20212;-66
2023/04/25 04:02:47;;;;;;;4.80;3.00;;;7.90;99.90;;;;;;5036136;28;20204;-66
2023/04/25 04:05:12;;;;;;;5.77;3.17;;;8.00;99.90;;;;;;5036316;28;20194;-66
2023/04/25 04:07:42;;;;;;;5.87;3.60;;;7.90;99.90;;;;;;5031892;28;20178;-67
2023/04/25 04:10:10;;;;;;;6.43;3.30;;;7.90;99.90;;;;;;5024683;28;20209;-67
2023/04/25 04:12:38;;;;;;;5.60;3.27;;;7.90;99.90;;;;;;5035147;28;20181;-63
2023/04/25 04:15:07;;;;;;;5.70;3.23;;;7.90;99.90;;;;;;5033442;28;20170;-66
2023/04/25 04:17:33;;;;;;;5.40;3.03;;;7.90;99.90;;;;;;5038678;28;20194;-67
2023/04/25 04:19:59;;;;;;;5.87;3.27;;;7.90;99.90;;;;;;5034164;28;20189;-67
2023/04/25 04:22:27;;;;;;;7.57;3.80;;;7.90;99.90;;;;;;5049063;28;20262;-66
2023/04/25 04:24:54;;;;;;;6.23;3.23;;;7.90;99.90;;;;;;5043181;28;20193;-66
2023/04/25 04:27:21;;;;;;;7.20;3.70;;;7.90;99.90;;;;;;5029877;28;20186;-66
2023/04/25 04:29:47;;;;;;;9.27;3.90;;;7.90;99.90;;;;;;5030243;28;20218;-71
2023/04/25 04:32:14;;;;;;;7.00;3.57;;;7.90;99.90;;;;;;5028771;28;20237;-68
2023/04/25 04:34:39;;;;;;;5.10;3.50;;;7.90;99.90;;;;;;5032047;28;20174;-68
2023/04/25 04:37:08;;;;;;;8.57;3.70;;;8.00;99.90;;;;;;5028239;28;20189;-71
2023/04/25 04:39:34;;;;;;;7.50;3.60;;;8.00;99.90;;;;;;5032071;28;20188;-71
2023/04/25 04:42:01;;;;;;;8.10;4.20;;;8.00;99.90;;;;;;5028478;28;20313;-71
2023/04/25 04:44:32;;;;;;;8.50;4.07;;;8.10;99.90;;;;;;5028108;28;20182;-67
2023/04/25 04:47:06;;;;;;;6.60;3.80;;;8.10;99.90;;;;;;5028224;28;20240;-68
2023/04/25 04:49:34;;;;;;;5.67;3.60;;;8.10;99.90;;;;;;5029438;28;20206;-71
2023/04/25 04:52:02;;;;;;;9.27;3.73;;;8.20;99.90;;;;;;5033240;28;20243;-72
2023/04/25 04:54:27;;;;;;;8.33;3.70;;;8.30;99.90;;;;;;5028513;28;20179;-65
2023/04/25 04:56:53;;;;;;;8.67;3.70;;;8.40;99.90;;;;;;5025976;28;20220;-66
2023/04/25 04:59:21;;;;;;;5.50;3.47;;;8.30;99.90;;;;;;5030356;28;20186;-66
2023/04/25 05:01:49;;;;;;;6.47;3.77;;;8.30;99.90;;;;;;5018592;28;20229;-66
2023/04/25 05:04:17;;;;;;;6.47;3.57;;;8.40;99.90;;;;;;5031469;28;20194;-67
2023/04/25 05:06:42;;;;;;;6.60;3.50;;;8.40;99.90;;;;;;5031448;28;20189;-67
2023/04/25 05:09:08;;;;;;;7.57;3.60;;;8.40;99.90;;;;;;5028091;28;20194;-66
2023/04/25 05:11:34;;;;;;;7.17;3.50;;;8.40;99.90;;;;;;5027743;28;20186;-66
2023/04/25 05:14:01;;;;;;;8.17;3.73;;;8.40;99.90;;;;;;5025494;28;20173;-66
2023/04/25 05:16:29;;;;;;;4.87;3.30;;;8.40;99.90;;;;;;5031024;28;20175;-67
2023/04/25 05:18:55;;;;;;;6.87;3.20;;;8.50;99.90;;;;;;5032260;28;20174;-66
2023/04/25 05:21:22;;;;;;;9.53;3.73;;;8.40;99.90;;;;;;5022225;28;20253;-66
2023/04/25 05:23:50;;;;;;;5.70;3.13;;;8.40;99.90;;;;;;5025873;28;20188;-66
2023/04/25 05:26:15;;;;;;;8.40;3.70;;;8.40;99.90;;;;;;5032124;28;20193;-67
2023/04/25 05:28:42;;;;;;;7.13;3.43;;;8.50;99.90;;;;;;5033738;28;20302;-65
2023/04/25 05:31:09;;;;;;;6.17;3.30;;;8.50;99.90;;;;;;5031328;28;20427;-67
2023/04/25 05:33:40;;;;;;;5.47;3.47;;;8.50;99.90;;;;;;5014312;28;20186;-62
2023/04/25 05:36:06;;;;;;;6.57;3.67;;;8.50;99.90;;;;;;5032931;28;20226;-63
2023/04/25 05:38:36;;;;;;;5.53;3.33;;;8.60;99.90;;;;;;5032265;28;20189;-68
2023/04/25 05:41:04;;;;;;;6.80;3.63;;;8.60;99.90;;;;;;5013777;28;20213;-67
2023/04/25 05:43:30;;;;;;;7.13;3.60;;;8.60;99.90;;;;;;5018542;28;20189;-69
2023/04/25 05:45:55;;;;;;;7.90;3.90;;;8.70;99.90;;;;;;5033724;28;20258;-67
2023/04/25 05:48:21;;;;;;;7.30;4.53;;;8.70;99.90;;;;;;5033834;28;20184;-68
2023/04/25 05:50:47;;;;;;;10.67;4.67;;;8.70;99.90;;;;;;5033423;28;20193;-67
2023/04/25 05:53:15;;;;;;;8.40;4.07;;;8.80;99.90;;;;;;5033894;28;20178;-67
2023/04/25 05:55:40;;;;;;;7.70;4.30;;;8.70;99.90;;;;;;5033421;28;20272;-65
2023/04/25 05:58:06;;;;;;;7.73;4.23;;;8.80;99.90;;;;;;5033347;28;20244;-65
2023/04/25 06:00:35;;;;;;;8.37;4.37;;;8.80;99.90;;;;;;5030960;28;20214;-66
2023/04/25 06:03:03;;;;;;;6.93;4.03;;;8.80;99.90;;;;;;5032739;28;20198;-64
2023/04/25 06:05:31;;;;;;;9.10;4.20;;;8.80;99.90;;;;;;5039028;28;20178;-65
2023/04/25 06:07:56;;;;;;;8.60;4.03;;;8.80;99.90;;;;;;5051138;28;20180;-66
2023/04/25 06:10:22;;;;;;;9.60;3.87;;;8.80;99.90;;;;;;5040900;28;20201;-63
2023/04/25 06:12:48;;;;;;;6.47;4.33;;;8.80;99.90;;;;;;5040625;28;20209;-76
2023/04/25 06:15:18;;;;;;;10.67;5.00;;;8.90;99.90;;;;;;5034012;28;20209;-77
2023/04/25 06:17:49;;;;;;;9.10;4.83;;;8.90;99.90;;;;;;5017521;28;20248;-77
2023/04/25 06:20:17;;;;;;;10.70;5.07;;;8.90;99.90;;;;;;5036999;28;20181;-76
2023/04/25 06:22:42;;;;;;;8.27;4.70;;;8.90;99.90;;;;;;5038233;28;20181;-79
2023/04/25 06:25:08;;;;;;;8.17;4.80;;;8.90;99.90;;;;;;5035913;28;20166;-76
2023/04/25 06:27:39;;;;;;;8.80;4.53;;;8.90;99.90;;;;;;5032339;28;20265;-77
2023/04/25 06:30:07;;;;;;;8.83;4.10;;;9.00;99.90;;;;;;5037605;28;20170;-76
2023/04/25 06:32:34;;;;;;;10.20;4.73;;;9.00;99.90;;;;;;5033591;28;20229;-76
2023/04/25 06:35:00;;;;;;;11.67;4.03;;;9.10;99.90;;;;;;5036784;28;20224;-76
2023/04/25 06:37:28;;;;;;;5.80;3.60;;;9.00;99.90;;;;;;5030297;28;20213;-77
2023/04/25 06:39:56;;;;;;;10.03;4.00;;;9.10;99.90;;;;;;5036447;28;20253;-77
2023/04/25 06:42:26;;;;;;;8.33;4.23;;;9.10;99.90;;;;;;5036868;28;20189;-74
2023/04/25 06:44:52;;;;;;;8.63;3.53;;;9.20;99.90;;;;;;5036621;28;20197;-77
2023/04/25 06:47:20;;;;;;;12.83;4.53;;;9.20;99.90;;;;;;5036397;28;20166;-77
2023/04/25 06:49:47;;;;;;;9.47;4.30;;;9.20;99.90;;;;;;5031176;28;20264;-77
2023/04/25 06:52:13;;;;;;;12.13;4.17;;;9.30;99.90;;;;;;5036748;28;20209;-71
2023/04/25 06:54:39;;;;;;;9.20;3.80;;;9.30;99.90;;;;;;5036632;28;20178;-77
2023/04/25 06:57:04;;;;;;;8.43;4.13;;;9.30;99.90;;;;;;5026884;28;20185;-75
2023/04/25 06:59:30;;;;;;;8.70;4.23;;;9.30;99.90;;;;;;5032114;28;20206;-77
2023/04/25 07:01:58;;;;;;;9.07;3.97;;;9.40;99.90;;;;;;5034468;28;20194;-77
2023/04/25 07:04:26;;;;;;;7.25;3.85;;;9.40;99.90;;;;;;5036843;28;20174;-77
2023/04/25 07:06:54;;;;;;;7.67;3.70;;;9.40;99.90;;;;;;5036707;28;20173;-78
2023/04/25 07:09:20;;;;;;;7.32;3.67;;;9.50;99.90;;;;;;5036471;28;20216;-77
2023/04/25 07:11:46;;;;;;;10.68;3.65;;;9.60;99.90;;;;;;5034039;28;20201;-76
2023/04/25 07:14:13;;;;;;;9.93;3.38;;;9.70;99.90;;;;;;5032293;28;20174;-76
2023/04/25 07:16:41;;;;;;;8.50;3.95;;;9.70;99.90;;;;;;5029493;28;20315;-76
2023/04/25 07:19:07;;;;;;;9.93;3.40;;;9.80;99.90;;;;;;5033136;28;20282;-76
2023/04/25 07:21:32;;;;;;;6.60;3.45;;;9.90;99.90;;;;;;5033034;28;20218;-77
2023/04/25 07:24:03;;;;;;;7.90;2.97;;;9.80;99.90;;;;;;5035515;28;20173;-77
2023/04/25 07:26:28;;;;;;;8.40;3.63;;;9.90;99.90;;;;;;5035540;28;20367;-75
2023/04/25 07:28:54;;;;;;;5.82;3.30;;;9.90;99.90;;;;;;5035930;28;20521;-78
2023/04/25 07:31:23;;;;;;;9.85;2.85;;;10.00;99.90;;;;;;5036414;28;20291;-77
2023/04/25 07:33:48;;;;;;;7.55;3.10;;;10.00;99.90;;;;;;5033628;28;20196;-77
2023/04/25 07:36:16;;;;;;;7.43;3.00;;;10.00;99.90;;;;;;5036339;28;20269;-77
2023/04/25 07:38:44;;;;;;;5.28;2.95;;;10.00;99.90;;;;;;5032184;28;20183;-78
2023/04/25 07:41:09;;;;;;;8.45;3.42;;;10.00;99.90;;;;;;5016628;28;20206;-77
2023/04/25 07:43:35;;;;;;;8.02;2.72;;;10.10;99.90;;;;;;5022908;28;20183;-78
2023/04/25 07:46:01;;;;;;;7.68;3.28;;;10.00;99.90;;;;;;5036658;28;20186;-78
2023/04/25 07:48:26;;;;;;;7.15;2.97;;;10.10;99.90;;;;;;5033039;28;20178;-77
2023/04/25 07:50:52;;;;;;;8.45;2.70;;;10.10;99.90;;;;;;5033122;28;20248;-75
2023/04/25 07:53:20;;;;;;;7.10;2.60;;;10.10;99.90;;;;;;5023025;28;20303;-76
2023/04/25 07:55:46;;;;;;;5.00;2.33;;;10.20;99.90;;;;;;5036729;28;20174;-78
2023/04/25 07:58:11;;;;;;;6.10;2.33;;;10.20;99.90;;;;;;5032792;28;20190;-78
2023/04/25 08:00:39;;;;;;;6.40;2.50;;;10.30;99.90;;;;;;5019115;28;20301;-78
2023/04/25 08:03:06;;;;;;;5.88;2.63;;;10.30;99.90;;;;;;5055983;28;20170;-78
2023/04/25 08:05:31;;;;;;;5.43;2.45;;;10.30;99.90;;;;;;5056234;28;20169;-77
2023/04/25 08:07:57;;;;;;;7.20;2.33;;;10.40;99.90;;;;;;5033543;28;20198;-77
2023/04/25 08:10:25;;;;;;;6.60;2.38;;;10.50;99.90;;;;;;5034393;28;20224;-77
2023/04/25 08:12:51;;;;;;;6.22;2.42;;;10.50;99.90;;;;;;5036037;28;20174;-77
2023/04/25 08:15:16;;;;;;;7.20;2.55;;;10.60;99.90;;;;;;5032414;28;20203;-78
2023/04/25 08:17:46;;;;;;;6.40;2.50;;;10.70;99.90;;;;;;5034263;28;20190;-78
2023/04/25 08:20:12;;;;;;;5.50;2.30;;;10.80;99.90;;;;;;5025571;28;20181;-77
2023/04/25 08:22:38;;;;;;;4.45;1.92;;;10.80;99.90;;;;;;5015795;28;20265;-77
2023/04/25 08:25:08;;;;;;;8.68;2.30;;;10.90;99.90;;;;;;5024168;28;20216;-77
2023/04/25 08:27:37;;;;;;;6.18;1.90;;;10.90;99.90;;;;;;5034869;28;20177;-77
2023/04/25 08:30:03;;;;;;;3.83;2.03;;;10.90;99.90;;;;;;5035012;28;20439;-76
2023/04/25 08:32:29;;;;;;;3.85;1.83;;;10.90;99.90;;;;;;5023531;28;20178;-76
2023/04/25 08:34:57;;;;;;;7.05;2.25;;;10.90;99.90;;;;;;5035219;28;20198;-78
2023/04/25 08:37:22;;;;;;;3.08;1.90;;;10.90;99.90;;;;;;5031640;28;20205;-76
2023/04/25 08:39:52;;;;;;;5.03;1.90;;;10.90;99.90;;;;;;5025639;28;20260;-78
2023/04/25 08:42:18;;;;;;;6.18;2.40;;;10.90;99.90;;;;;;5038896;28;20205;-77
2023/04/25 08:44:45;;;;;;;5.90;2.17;;;10.90;99.90;;;;;;5038718;28;20185;-77
2023/04/25 08:47:11;;;;;;;5.35;2.20;;;10.80;99.90;;;;;;5031393;28;20178;-78
2023/04/25 08:49:39;;;;;;;3.95;1.95;;;10.80;99.90;;;;;;5016393;28;20301;-79
2023/04/25 08:52:07;;;;;;;5.55;2.08;;;10.80;99.90;;;;;;5045835;28;20177;-78
2023/04/25 08:54:33;;;;;;;3.72;2.10;;;10.80;99.90;;;;;;5032199;28;20181;-76
2023/04/25 08:57:05;;;;;;;7.50;2.30;;;10.80;99.90;;;;;;5025928;28;20419;-78
2023/04/25 08:59:37;;;;;;;5.85;2.22;;;10.80;99.90;;;;;;5035133;28;20182;-78
2023/04/25 09:02:03;;;;;;;6.13;2.15;;;10.80;99.90;;;;;;5030775;28;20312;-77
2023/04/25 09:04:36;;;;;;;5.68;1.90;;;10.80;99.90;;;;;;5032566;28;20177;-77
2023/04/25 09:07:03;;;;;;;3.70;2.13;;;10.80;99.90;;;;;;5034869;28;20234;-78
2023/04/25 09:09:31;;;;;;;5.85;2.08;;;10.90;99.90;;;;;;5029398;28;20190;-75
2023/04/25 09:12:01;;;;;;;4.13;1.70;;;11.00;99.90;;;;;;5021637;28;20194;-78
2023/04/25 09:14:27;;;;;;;6.35;2.40;;;11.10;99.90;;;;;;5034431;28;20170;-77
2023/04/25 09:16:56;;;;;;;4.10;2.03;;;11.20;99.90;;;;;;5033845;28;20202;-76
2023/04/25 09:19:26;;;;;;;6.32;2.15;;;11.30;99.90;;;;;;5015434;28;20174;-77
2023/04/25 09:21:59;;;;;;;7.22;2.35;;;11.40;99.90;;;;;;5033976;28;20189;-79
2023/04/25 09:24:40;;;;;;;5.68;2.30;;;11.50;99.90;;;;;;5033896;28;20271;-75
2023/04/25 09:27:11;;;;;;;4.95;1.80;;;11.60;99.90;;;;;;5033817;28;20173;-76
2023/04/25 09:29:40;;;;;;;4.72;1.90;;;11.70;99.90;;;;;;5022605;28;20213;-74
2023/04/25 09:32:19;;;;;;;3.90;1.73;;;11.70;99.90;;;;;;5031358;28;20186;-77
2023/04/25 09:34:50;;;;;;;4.82;1.60;;;11.70;99.90;;;;;;5019815;28;20265;-76
2023/04/25 09:37:22;;;;;;;3.17;1.50;;;11.80;99.90;;;;;;5034353;28;20209;-76
2023/04/25 09:39:55;;;;;;;3.60;1.42;;;11.80;99.90;;;;;;5028948;28;20206;-78
2023/04/25 09:42:28;;;;;;;3.88;1.42;;;11.80;99.90;;;;;;5034876;28;20276;-76
2023/04/25 09:44:55;;;;;;;4.38;1.60;;;11.80;99.90;;;;;;5034619;28;20194;-76
2023/04/25 09:47:24;;;;;;;2.38;1.33;;;11.70;99.90;;;;;;5034130;28;20184;-76
2023/04/25 09:49:54;;;;;;;3.65;1.23;;;11.70;99.90;;;;;;5034126;28;20218;-76
2023/04/25 09:52:22;;;;;;;3.42;1.30;;;11.60;99.90;;;;;;5030513;28;20205;-78
2023/04/25 09:54:49;;;;;;;2.80;1.48;;;11.60;99.90;;;;;;5038704;28;20182;-78
2023/04/25 09:57:17;;;;;;;3.40;1.48;;;11.60;99.90;;;;;;5038236;28;20190;-77
2023/04/25 09:59:47;;;;;;;4.88;2.10;;;11.70;99.90;;;;;;5038072;28;20197;-77
2023/04/25 10:02:18;;;;;;;4.20;1.58;;;11.70;99.90;;;;;;5038964;28;20282;-76
2023/04/25 10:04:49;;;;;;;3.38;1.58;;;11.80;99.90;;;;;;5037960;28;20281;-78
2023/04/25 10:07:16;;;;;;;3.22;1.92;;;11.90;99.90;;;;;;5038395;28;20174;-77
2023/04/25 10:09:42;;;;;;;6.00;1.80;;;11.90;99.90;;;;;;5038010;28;20182;-73
2023/04/25 10:12:08;;;;;;;5.15;2.33;;;12.00;99.90;;;;;;5043086;28;20246;-76
2023/04/25 10:14:37;;;;;;;4.82;2.17;;;12.10;99.90;;;;;;5058466;28;20181;-77
2023/04/25 10:17:03;;;;;;;7.57;1.60;;;12.10;99.90;;;;;;5045515;28;20185;-72
2023/04/25 10:19:29;;;;;;;3.78;1.45;;;12.10;99.90;;;;;;5037740;28;20202;-75
2023/04/25 10:22:11;;;;;;;4.80;1.40;;;12.10;99.90;;;;;;5037941;28;20209;-76
2023/04/25 10:24:42;;;;;;;4.80;1.30;;;12.00;99.90;;;;;;5037105;28;20205;-77
2023/04/25 10:27:11;;;;;;;5.45;1.50;;;12.00;99.90;;;;;;5037109;28;20235;-77
2023/04/25 10:29:39;;;;;;;3.28;1.50;;;12.00;99.90;;;;;;5025885;28;20170;-76
2023/04/25 10:32:07;;;;;;;3.67;1.45;;;12.00;99.90;;;;;;5040338;28;20178;-77
2023/04/25 10:34:40;;;;;;;5.18;1.67;;;11.90;99.90;;;;;;5035782;28;20174;-76
2023/04/25 10:37:11;;;;;;;9.18;2.00;;;12.00;99.90;;;;;;5035910;28;20166;-77
2023/04/25 10:39:41;;;;;;;4.38;1.90;;;12.00;99.90;;;;;;5043502;28;20209;-76
2023/04/25 10:42:09;;;;;;;3.95;1.73;;;12.00;99.90;;;;;;5036478;28;20248;-75
2023/04/25 10:44:38;;;;;;;5.22;2.15;;;12.00;99.90;;;;;;5036577;28;20189;-74
2023/04/25 10:47:07;;;;;;;4.80;2.10;;;12.00;99.90;;;;;;5036446;28;20205;-75
2023/04/25 10:49:39;;;;;;;3.58;1.98;;;11.90;99.90;;;;;;5027354;28;20190;-74
2023/04/25 10:52:29;;;;;;;6.15;1.98;;;11.90;99.90;;;;;;5036525;28;20277;-76
2023/04/25 10:54:59;;;;;;;4.03;2.05;;;11.80;99.90;;;;;;5017081;28;20208;-73
2023/04/25 10:57:39;;;;;;;7.45;1.80;;;11.80;99.90;;;;;;5036489;28;20197;-75
2023/04/25 11:00:15;;;;;;;4.00;1.58;;;11.70;99.90;;;;;;5029868;28;20417;-75
2023/04/25 11:02:47;;;;;;;5.38;1.65;;;11.60;99.90;;;;;;5032039;28;20178;-77
2023/04/25 11:05:36;;;;;;;3.55;1.90;;;11.50;99.90;;;;;;5018495;28;20174;-78
2023/04/25 11:08:04;;;;;;;4.45;2.13;;;11.40;99.90;;;;;;5024735;28;20202;-76
2023/04/25 11:10:36;;;;;;;3.25;1.80;;;11.40;99.90;;;;;;5036020;28;20174;-77
2023/04/25 11:13:05;;;;;;;4.78;2.20;;;11.40;99.90;;;;;;5021176;28;20179;-76
2023/04/25 11:15:32;;;;;;;3.75;1.80;;;11.30;99.90;;;;;;5031786;28;20194;-75
2023/04/25 11:18:00;;;;;;;2.75;1.42;;;11.30;99.90;;;;;;5033431;28;20179;-73
2023/04/25 11:20:28;;;;;;;6.18;2.20;;;11.40;99.90;;;;;;5029504;28;20182;-76
2023/04/25 11:22:58;;;;;;;5.82;1.90;;;11.50;99.90;;;;;;5034808;28;20213;-77
2023/04/25 11:25:25;;;;;;;4.60;2.15;;;11.70;99.90;;;;;;5047606;28;20263;-75
2023/04/25 11:27:58;;;;;;;6.63;2.38;;;11.80;99.90;;;;;;5034947;28;20233;-76
2023/04/25 11:30:26;;;;;;;5.63;2.08;;;12.00;99.90;;;;;;5035857;28;20253;-76
2023/04/25 11:32:53;;;;;;;5.05;1.88;;;12.10;99.90;;;;;;5032320;28;20182;-75
2023/04/25 11:35:22;;;;;;;6.35;1.98;;;12.30;99.90;;;;;;5034583;28;20198;-77
2023/04/25 11:37:51;;;;;;;5.82;1.95;;;12.30;99.90;;;;;;5029743;28;20183;-77
2023/04/25 11:40:17;;;;;;;4.20;1.90;;;12.40;99.90;;;;;;5016239;28;20170;-77
2023/04/25 11:42:47;;;;;;;6.78;2.20;;;12.30;99.90;;;;;;5026250;28;20191;-76
2023/04/25 11:45:15;;;;;;;4.60;1.95;;;12.30;99.90;;;;;;5032833;28;20189;-73
2023/04/25 11:47:43;;;;;;;5.40;1.80;;;12.20;99.90;;;;;;5036074;28;20170;-77
2023/04/25 11:50:14;;;;;;;3.05;1.60;;;12.10;99.90;;;;;;5032272;28;20229;-77
2023/04/25 11:52:44;;;;;;;3.25;1.88;;;12.00;99.90;;;;;;5030486;28;20174;-77
2023/04/25 11:55:13;;;;;;;4.25;1.80;;;12.00;99.90;;;;;;5035773;28;20174;-76
2023/04/25 11:57:43;;;;;;;6.18;2.13;;;11.90;99.90;;;;;;5016424;28;20190;-74
2023/04/25 12:00:20;;;;;;;4.57;1.80;;;11.80;99.90;;;;;;5017879;28;20179;-75
2023/04/25 12:02:47;;;;;;;4.57;1.58;;;11.70;99.90;;;;;;5035810;28;20217;-73
2023/04/25 12:05:16;;;;;;;5.35;1.67;;;11.60;99.90;;;;;;5030275;28;20186;-77
2023/04/25 12:07:45;;;;;;;8.30;2.00;;;11.60;99.90;;;;;;5015911;28;20220;-75
2023/04/25 12:10:17;;;;;;;4.47;1.50;;;11.50;99.90;;;;;;5031983;28;20197;-76
2023/04/25 12:12:47;;;;;;;3.72;1.33;;;11.50;99.90;;;;;;5035297;28;20174;-76
2023/04/25 12:15:15;;;;;;;2.88;1.08;;;11.50;99.90;;;;;;5015950;28;20368;-74
2023/04/25 12:17:46;;;;;;;3.25;1.10;;;11.50;99.90;;;;;;5017742;28;20180;-77
2023/04/25 12:20:17;;;;;;;5.47;1.77;;;11.50;99.90;;;;;;5031908;28;20244;-75
2023/04/25 12:22:44;;;;;;;2.92;1.13;;;11.60;99.90;;;;;;5034130;28;20166;-74
2023/04/25 12:25:33;;;;;;;2.72;1.35;;;11.70;99.90;;;;;;5015654;28;20221;-76
2023/04/25 12:28:20;;;;;;;5.43;2.00;;;11.80;99.90;;;;;;5026031;28;20167;-77
2023/04/25 12:31:01;;;;;;;3.95;1.40;;;11.90;99.90;;;;;;5029407;28;20590;-77
2023/04/25 12:33:31;;;;;;;4.55;1.80;;;12.00;99.90;;;;;;5039550;28;20261;-76
2023/04/25 12:36:03;;;;;;;2.88;1.60;;;12.10;99.90;;;;;;5034958;28;20191;-77
2023/04/25 12:38:35;;;;;;;5.82;1.70;;;12.10;99.90;;;;;;5030998;28;20196;-76
2023/04/25 12:41:01;;;;;;;4.20;1.80;;;12.10;99.90;;;;;;5022877;28;20202;-73
2023/04/25 12:43:26;;;;;;;2.97;1.50;;;12.20;99.90;;;;;;5034517;28;20201;-77
2023/04/25 12:45:54;;;;;;;5.15;1.40;;;12.10;99.90;;;;;;5034258;28;20169;-77
2023/04/25 12:48:20;;;;;;;7.10;2.05;;;12.00;99.90;;;;;;5034799;28;20178;-75
2023/04/25 12:50:50;;;;;;;4.47;1.73;;;12.10;99.90;;;;;;5039938;28;20206;-75
2023/04/25 12:53:20;;;;;;;3.53;1.50;;;12.20;99.90;;;;;;5031265;28;20182;-77
2023/04/25 12:55:46;;;;;;;4.15;1.60;;;12.50;99.90;;;;;;5021977;28;20174;-77
2023/04/25 12:58:13;;;;;;;3.28;1.85;;;12.80;99.90;;;;;;5035101;28;20190;-76